createdAt,value
2022-09-29T00:01:20.314Z,1.87
2022-09-29T00:03:48.785Z,1.70
2022-09-29T00:06:19.098Z,2.30
2022-09-29T00:08:49.401Z,1.87
2022-09-29T00:11:19.809Z,2.23
2022-09-29T00:13:48.938Z,2.20
2022-09-29T00:16:18.073Z,1.80
2022-09-29T00:18:46.584Z,2.00
2022-09-29T00:21:16.736Z,1.80
2022-09-29T00:23:46.014Z,1.70
2022-09-29T00:26:18.553Z,1.70
2022-09-29T00:28:49.897Z,1.80
2022-09-29T00:31:18.587Z,1.80
2022-09-29T00:33:47.539Z,1.60
2022-09-29T00:36:17.669Z,1.80
2022-09-29T00:38:47.139Z,2.03
2022-09-29T00:41:19.195Z,1.90
2022-09-29T00:43:52.420Z,1.60
2022-09-29T00:46:25.648Z,1.60
2022-09-29T00:48:56.638Z,1.83
2022-09-29T00:51:26.892Z,1.83
2022-09-29T00:53:55.626Z,1.83
2022-09-29T00:56:25.881Z,2.00
2022-09-29T00:58:57.957Z,1.70
2022-09-29T01:01:29.387Z,2.10
2022-09-29T01:04:00.748Z,2.13
2022-09-29T01:06:34.024Z,2.00
2022-09-29T01:09:05.184Z,1.80
2022-09-29T01:11:35.311Z,1.70
2022-09-29T01:14:06.992Z,1.90
2022-09-29T01:16:37.947Z,2.00
2022-09-29T01:19:11.362Z,2.00
2022-09-29T01:21:50.132Z,2.10
2022-09-29T01:24:50.445Z,1.67
2022-09-29T01:27:34.644Z,1.70
2022-09-29T01:30:23.041Z,2.03
2022-09-29T01:33:11.728Z,1.90
2022-09-29T01:35:54.599Z,1.87
2022-09-29T01:38:41.268Z,1.90
2022-09-29T01:41:15.804Z,2.13
2022-09-29T01:43:50.328Z,2.00
2022-09-29T01:46:25.133Z,1.70
2022-09-29T01:48:59.547Z,1.90
2022-09-29T01:51:32.437Z,1.97
2022-09-29T01:54:08.425Z,1.70
2022-09-29T01:56:42.771Z,1.47
2022-09-29T01:59:17.742Z,1.80
2022-09-29T02:01:52.174Z,1.70
2022-09-29T02:04:27.491Z,1.90
2022-09-29T02:07:01.423Z,2.13
2022-09-29T02:09:35.768Z,1.80
2022-09-29T02:12:07.968Z,1.50
2022-09-29T02:14:41.828Z,1.70
2022-09-29T02:17:20.090Z,1.50
2022-09-29T02:19:52.537Z,1.73
2022-09-29T02:22:22.754Z,1.90
2022-09-29T02:24:56.912Z,1.77
2022-09-29T02:27:25.976Z,1.80
2022-09-29T02:29:55.568Z,1.60
2022-09-29T02:32:24.381Z,1.70
2022-09-29T02:34:56.395Z,1.90
2022-09-29T02:37:37.312Z,2.07
2022-09-29T02:40:25.728Z,1.60
2022-09-29T02:43:07.475Z,2.00
2022-09-29T02:45:47.277Z,1.73
2022-09-29T02:48:40.240Z,1.67
2022-09-29T02:51:20.645Z,2.20
2022-09-29T02:54:07.265Z,1.80
2022-09-29T02:56:42.791Z,1.97
2022-09-29T02:59:16.355Z,1.80
2022-09-29T03:01:51.595Z,2.00
2022-09-29T03:04:22.172Z,1.73
2022-09-29T03:06:52.755Z,1.97
2022-09-29T03:09:21.885Z,1.90
2022-09-29T03:11:51.551Z,1.80
2022-09-29T03:14:20.377Z,1.77
2022-09-29T03:16:50.087Z,1.80
2022-09-29T03:19:19.036Z,2.17
2022-09-29T03:21:51.069Z,2.10
2022-09-29T03:24:23.513Z,2.20
2022-09-29T03:26:52.405Z,1.70
2022-09-29T03:29:25.078Z,1.80
2022-09-29T03:31:56.956Z,1.53
2022-09-29T03:34:25.898Z,1.80
2022-09-29T03:36:55.150Z,1.70
2022-09-29T03:39:25.923Z,1.80
2022-09-29T03:41:55.306Z,1.70
2022-09-29T03:44:24.913Z,1.90
2022-09-29T03:49:37.038Z,1.90
2022-09-29T03:52:06.830Z,2.00
2022-09-29T03:54:39.038Z,1.97
2022-09-29T03:57:08.599Z,1.67
2022-09-29T03:59:39.998Z,1.90
2022-09-29T04:02:14.448Z,2.20
2022-09-29T04:04:48.003Z,1.97
2022-09-29T04:07:19.067Z,1.73
2022-09-29T04:09:50.461Z,1.90
2022-09-29T04:12:19.400Z,2.30
2022-09-29T04:14:54.351Z,2.13
2022-09-29T04:17:23.216Z,2.00
2022-09-29T04:19:51.700Z,2.00
2022-09-29T04:22:20.063Z,2.60
2022-09-29T04:24:50.648Z,2.37
2022-09-29T04:27:19.500Z,2.17
2022-09-29T04:29:47.890Z,2.10
2022-09-29T04:32:16.605Z,2.10
2022-09-29T04:34:45.537Z,2.13
2022-09-29T04:37:14.819Z,2.20
2022-09-29T04:39:43.378Z,2.10
2022-09-29T04:42:13.337Z,2.30
2022-09-29T04:44:42.506Z,2.20
2022-09-29T04:47:11.087Z,2.30
2022-09-29T04:49:40.053Z,2.20
2022-09-29T04:52:08.411Z,2.40
2022-09-29T04:54:38.317Z,1.97
2022-09-29T04:57:07.389Z,1.97
2022-09-29T04:59:37.907Z,2.60
2022-09-29T05:02:07.174Z,3.33
2022-09-29T05:04:36.538Z,3.23
2022-09-29T05:07:05.656Z,3.90
2022-09-29T05:09:34.628Z,3.40
2022-09-29T05:12:07.107Z,2.13
2022-09-29T05:14:37.125Z,2.50
2022-09-29T05:17:05.646Z,2.20
2022-09-29T05:19:34.427Z,2.50
2022-09-29T05:22:03.896Z,2.10
2022-09-29T05:24:59.529Z,2.50
2022-09-29T05:27:27.985Z,2.50
2022-09-29T05:29:58.918Z,2.13
2022-09-29T05:32:27.516Z,2.20
2022-09-29T05:34:59.079Z,2.30
2022-09-29T05:37:27.591Z,2.90
2022-09-29T05:39:56.433Z,2.47
2022-09-29T05:42:25.871Z,2.83
2022-09-29T05:44:54.174Z,3.07
2022-09-29T05:47:24.424Z,2.70
2022-09-29T05:49:53.141Z,3.60
2022-09-29T05:52:21.421Z,2.80
2022-09-29T05:55:12.062Z,3.20
2022-09-29T05:57:43.110Z,3.33
2022-09-29T06:00:13.191Z,3.47
2022-09-29T06:02:42.824Z,3.03
2022-09-29T06:05:11.030Z,2.90
2022-09-29T06:07:40.009Z,3.30
2022-09-29T06:10:08.677Z,3.53
2022-09-29T06:12:38.071Z,3.30
2022-09-29T06:15:06.805Z,2.90
2022-09-29T06:17:36.387Z,3.27
2022-09-29T06:20:07.178Z,3.30
2022-09-29T06:22:36.001Z,2.70
2022-09-29T06:25:04.202Z,3.73
2022-09-29T06:27:32.729Z,2.97
2022-09-29T06:30:01.397Z,2.47
2022-09-29T06:32:29.723Z,3.10
2022-09-29T06:35:15.838Z,3.17
2022-09-29T06:37:46.975Z,3.17
2022-09-29T06:40:23.877Z,3.00
2022-09-29T06:42:52.510Z,3.37
2022-09-29T06:45:22.393Z,3.23
2022-09-29T06:47:51.045Z,3.43
2022-09-29T06:50:19.789Z,3.00
2022-09-29T06:53:01.875Z,2.70
2022-09-29T06:55:32.216Z,2.83
2022-09-29T06:58:04.105Z,3.10
2022-09-29T07:00:33.563Z,3.07
2022-09-29T07:03:02.236Z,3.03
2022-09-29T07:05:32.295Z,3.33
2022-09-29T07:08:03.731Z,3.07
2022-09-29T07:10:32.245Z,2.70
2022-09-29T07:13:01.821Z,3.67
2022-09-29T07:15:38.326Z,3.40
2022-09-29T07:18:07.143Z,3.53
2022-09-29T07:20:38.182Z,3.10
2022-09-29T07:23:09.322Z,3.10
2022-09-29T07:25:51.680Z,3.60
2022-09-29T07:28:21.998Z,3.53
2022-09-29T07:31:11.477Z,3.17
2022-09-29T07:33:43.263Z,2.90
2022-09-29T07:36:12.096Z,3.13
2022-09-29T07:38:42.392Z,2.83
2022-09-29T07:41:12.694Z,2.70
2022-09-29T07:43:42.045Z,2.60
2022-09-29T07:46:11.181Z,2.17
2022-09-29T07:48:40.723Z,2.73
2022-09-29T07:51:12.258Z,2.30
2022-09-29T07:53:44.402Z,2.50
2022-09-29T07:56:15.217Z,2.43
2022-09-29T07:58:44.832Z,2.00
2022-09-29T08:01:17.315Z,1.80
2022-09-29T08:03:51.518Z,2.17
2022-09-29T08:06:35.210Z,2.70
2022-09-29T08:09:12.917Z,2.43
2022-09-29T08:11:45.916Z,2.20
2022-09-29T08:14:18.881Z,2.13
2022-09-29T08:19:48.083Z,1.83
2022-09-29T08:22:18.138Z,1.50
2022-09-29T08:24:47.953Z,1.70
2022-09-29T08:27:28.161Z,1.40
2022-09-29T08:29:58.783Z,1.10
2022-09-29T08:32:27.624Z,1.10
2022-09-29T08:34:58.521Z,1.27
2022-09-29T08:40:38.700Z,1.30
2022-09-29T08:43:13.762Z,1.20
2022-09-29T08:45:59.171Z,1.40
2022-09-29T08:48:37.002Z,1.60
2022-09-29T08:51:42.660Z,1.90
2022-09-29T08:54:39.541Z,1.27
2022-09-29T08:57:17.635Z,1.20
2022-09-29T08:59:51.513Z,0.80
2022-09-29T09:02:55.775Z,1.20
2022-09-29T09:05:38.885Z,1.00
2022-09-29T09:08:21.407Z,0.83
2022-09-29T09:10:59.861Z,1.00
2022-09-29T09:13:40.440Z,0.90
2022-09-29T09:16:19.160Z,0.90
2022-09-29T09:19:18.682Z,1.00
2022-09-29T09:21:54.276Z,1.17
2022-09-29T09:24:34.652Z,1.20
2022-09-29T09:27:05.068Z,1.30
2022-09-29T09:29:51.208Z,1.60
2022-09-29T09:32:31.596Z,1.10
2022-09-29T09:35:23.258Z,1.20
2022-09-29T09:37:56.537Z,1.30
2022-09-29T09:40:34.074Z,1.40
2022-09-29T09:43:20.602Z,1.30
2022-09-29T09:46:01.606Z,1.30
2022-09-29T09:48:38.529Z,1.10
2022-09-29T09:51:29.772Z,0.83
2022-09-29T09:54:00.208Z,1.07
2022-09-29T09:56:44.678Z,1.20
2022-09-29T09:59:24.666Z,0.93
2022-09-29T10:04:41.735Z,1.13
2022-09-29T10:07:12.190Z,1.40
2022-09-29T10:09:54.709Z,1.20
2022-09-29T10:12:28.805Z,1.10
2022-09-29T10:15:04.102Z,1.00
2022-09-29T10:17:45.291Z,1.10
2022-09-29T10:23:33.443Z,1.07
2022-09-29T10:32:41.855Z,1.17
2022-09-29T10:35:34.116Z,1.47
2022-09-29T10:38:11.734Z,1.20
2022-09-29T10:43:57.191Z,1.10
2022-09-29T10:46:53.635Z,1.00
2022-09-29T10:49:35.081Z,1.00
2022-09-29T10:52:07.610Z,1.20
2022-09-29T10:54:43.849Z,1.00
2022-09-29T10:57:35.037Z,1.10
2022-09-29T11:00:07.299Z,1.40
2022-09-29T11:02:40.210Z,1.00
2022-09-29T11:05:20.234Z,1.50
2022-09-29T11:07:54.892Z,1.17
2022-09-29T11:10:33.248Z,1.40
2022-09-29T11:13:28.154Z,1.10
2022-09-29T11:16:11.900Z,1.20
2022-09-29T11:18:56.667Z,0.80
2022-09-29T11:22:00.579Z,1.20
2022-09-29T11:25:02.249Z,1.53
2022-09-29T11:31:14.203Z,1.27
2022-09-29T11:33:58.955Z,1.20
2022-09-29T11:36:40.964Z,1.10
2022-09-29T11:39:30.258Z,1.20
2022-09-29T12:12:05.238Z,1.70
2022-09-29T12:14:41.335Z,1.70
2022-09-29T12:17:26.778Z,1.40
2022-09-29T12:47:41.088Z,1.93
2022-09-29T12:57:35.650Z,2.20
2022-09-29T13:03:36.195Z,2.20
2022-09-29T13:14:19.446Z,1.90
2022-09-29T13:21:06.427Z,2.00
2022-09-29T13:23:58.923Z,2.43
2022-09-29T13:27:12.498Z,2.27
2022-09-29T13:29:50.802Z,2.80
2022-09-29T13:32:31.752Z,2.80
2022-09-29T14:03:59.002Z,3.13
2022-09-29T14:06:46.550Z,3.60
2022-09-29T14:09:19.086Z,3.77
2022-09-29T14:11:51.501Z,2.93
2022-09-29T14:17:22.670Z,2.93
2022-09-29T14:20:21.544Z,4.17
2022-09-29T14:23:02.309Z,3.10
2022-09-29T14:25:57.876Z,3.30
2022-09-29T14:28:44.525Z,3.40
2022-09-29T14:31:24.953Z,3.60
2022-09-29T14:33:54.942Z,3.47
2022-09-29T14:36:42.980Z,3.30
2022-09-29T14:39:32.014Z,3.33
2022-09-29T14:42:01.567Z,3.03
2022-09-29T14:44:51.916Z,3.40
2022-09-29T14:47:56.257Z,3.47
2022-09-29T14:50:59.707Z,3.50
2022-09-29T14:53:53.496Z,3.13
2022-09-29T14:56:43.110Z,3.53
2022-09-29T14:59:28.659Z,3.40
2022-09-29T15:02:23.447Z,3.20
2022-09-29T15:04:52.547Z,3.30
2022-09-29T15:07:23.854Z,3.13
2022-09-29T15:09:54.658Z,4.00
2022-09-29T15:12:26.875Z,3.57
2022-09-29T15:14:58.595Z,3.60
2022-09-29T15:17:45.328Z,2.87
2022-09-29T15:23:51.573Z,3.80
2022-09-29T15:26:22.409Z,3.70
2022-09-29T15:28:51.285Z,3.97
2022-09-29T15:31:31.000Z,3.80
2022-09-29T15:33:59.595Z,4.00
2022-09-29T15:36:31.729Z,4.20
2022-09-29T15:39:04.785Z,3.90
2022-09-29T15:41:36.567Z,3.80
2022-09-29T15:44:13.973Z,4.63
2022-09-29T15:46:52.220Z,4.73
2022-09-29T15:49:22.135Z,4.70
2022-09-29T15:51:59.941Z,4.70
2022-09-29T15:54:34.791Z,5.00
2022-09-29T15:57:22.701Z,4.33
2022-09-29T15:59:54.389Z,4.73
2022-09-29T16:02:28.455Z,5.00
2022-09-29T16:04:58.638Z,4.77
2022-09-29T16:07:31.432Z,4.97
2022-09-29T16:10:03.945Z,4.93
2022-09-29T16:12:39.029Z,5.33
2022-09-29T16:15:18.053Z,5.00
2022-09-29T16:17:49.428Z,5.10
2022-09-29T16:20:24.152Z,5.50
2022-09-29T16:22:52.807Z,5.40
2022-09-29T16:25:27.116Z,4.83
2022-09-29T16:27:58.994Z,4.70
2022-09-29T16:30:43.565Z,5.37
2022-09-29T16:33:16.421Z,5.83
2022-09-29T16:35:51.551Z,5.10
2022-09-29T16:38:21.980Z,5.70
2022-09-29T16:40:50.849Z,4.87
2022-09-29T16:43:32.631Z,5.40
2022-09-29T16:46:02.879Z,5.53
2022-09-29T16:48:38.248Z,5.50
2022-09-29T16:51:37.696Z,5.63
2022-09-29T16:54:04.534Z,4.63
2022-09-29T16:56:35.457Z,5.10
2022-09-29T16:59:11.467Z,4.80
2022-09-29T17:01:41.484Z,5.03
2022-09-29T17:04:11.425Z,6.60
2022-09-29T17:06:40.872Z,6.40
2022-09-29T17:09:09.384Z,6.10
2022-09-29T17:11:39.590Z,6.13
2022-09-29T17:14:13.612Z,6.10
2022-09-29T17:16:42.130Z,6.57
2022-09-29T17:19:12.260Z,7.33
2022-09-29T17:21:41.686Z,7.70
2022-09-29T17:24:11.239Z,6.97
2022-09-29T17:26:58.894Z,5.23
2022-09-29T17:29:29.188Z,4.10
2022-09-29T17:31:57.785Z,4.80
2022-09-29T17:34:29.462Z,4.73
2022-09-29T17:36:58.499Z,4.40
2022-09-29T17:39:27.458Z,4.70
2022-09-29T17:41:56.824Z,4.97
2022-09-29T17:44:27.816Z,5.47
2022-09-29T17:47:11.258Z,5.30
2022-09-29T17:49:50.966Z,5.87
2022-09-29T17:52:27.411Z,6.70
2022-09-29T17:54:56.770Z,7.13
2022-09-29T17:57:33.017Z,7.57
2022-09-29T18:02:43.021Z,7.43
2022-09-29T18:05:13.907Z,7.30
2022-09-29T18:07:42.701Z,8.73
2022-09-29T18:10:17.966Z,9.57
2022-09-29T18:12:46.469Z,8.47
2022-09-29T18:15:17.132Z,8.77
2022-09-29T18:17:49.703Z,8.20
2022-09-29T18:22:15.056Z,9.00
2022-09-29T18:23:29.006Z,8.67
2022-09-29T18:26:00.643Z,6.40
2022-09-29T18:28:29.189Z,5.60
2022-09-29T18:31:01.726Z,4.80
2022-09-29T18:33:31.623Z,4.83
2022-09-29T18:36:04.706Z,4.73
2022-09-29T18:38:47.889Z,4.43
2022-09-29T18:41:20.353Z,4.90
2022-09-29T18:43:49.031Z,5.40
2022-09-29T18:46:26.141Z,5.33
2022-09-29T18:48:55.923Z,5.90
2022-09-29T18:51:24.364Z,6.60
2022-09-29T18:53:53.703Z,5.53
2022-09-29T18:56:25.654Z,5.90
2022-09-29T18:59:10.983Z,6.50
2022-09-29T19:01:54.301Z,7.03
2022-09-29T19:04:53.081Z,6.77
2022-09-29T19:07:55.503Z,7.30
2022-09-29T19:10:47.006Z,7.90
2022-09-29T19:13:19.746Z,8.40
2022-09-29T19:15:56.424Z,8.40
2022-09-29T19:18:32.745Z,7.97
2022-09-29T19:21:19.447Z,8.50
2022-09-29T19:24:07.633Z,8.80
2022-09-29T19:26:55.341Z,9.17
2022-09-29T19:29:25.462Z,8.90
2022-09-29T19:31:58.129Z,10.00
2022-09-29T19:34:27.090Z,9.00
2022-09-29T19:36:55.593Z,9.93
2022-09-29T19:39:29.480Z,10.37
2022-09-29T19:41:59.390Z,10.17
2022-09-29T19:44:29.552Z,9.13
2022-09-29T19:46:58.007Z,9.90
2022-09-29T19:49:29.146Z,8.80
2022-09-29T19:51:57.790Z,8.83
2022-09-29T19:54:31.131Z,9.87
2022-09-29T19:57:08.565Z,10.23
2022-09-29T19:59:38.131Z,9.87
2022-09-29T20:02:13.454Z,10.40
2022-09-29T20:04:44.314Z,10.17
2022-09-29T20:07:18.684Z,11.17
2022-09-29T20:09:47.153Z,10.37
2022-09-29T20:12:19.587Z,11.17
2022-09-29T20:14:48.428Z,9.90
2022-09-29T20:17:47.851Z,10.03
2022-09-29T20:20:26.386Z,11.90
2022-09-29T20:23:05.820Z,11.30
2022-09-29T20:25:34.212Z,11.40
2022-09-29T20:28:15.209Z,10.93
2022-09-29T20:30:45.729Z,11.20
2022-09-29T20:33:20.901Z,9.50
2022-09-29T20:35:51.562Z,10.33
2022-09-29T20:38:25.579Z,9.90
2022-09-29T20:41:01.418Z,9.57
2022-09-29T20:43:43.659Z,9.10
2022-09-29T20:46:30.905Z,9.27
2022-09-29T20:49:13.715Z,10.00
2022-09-29T20:51:48.634Z,9.93
2022-09-29T20:54:33.670Z,9.67
2022-09-29T20:57:19.311Z,9.77
2022-09-29T20:59:51.835Z,9.93
2022-09-29T21:02:27.395Z,10.67
2022-09-29T21:04:56.010Z,10.03
2022-09-29T21:07:45.543Z,10.77
2022-09-29T21:10:14.462Z,8.93
2022-09-29T21:12:48.708Z,9.97
2022-09-29T21:15:32.392Z,10.03
2022-09-29T21:18:11.707Z,10.23
2022-09-29T21:23:40.344Z,9.27
2022-09-29T21:26:11.336Z,9.57
2022-09-29T21:28:45.302Z,9.53
2022-09-29T21:31:17.580Z,9.20
2022-09-29T21:33:48.848Z,8.33
2022-09-29T21:36:26.938Z,9.97
2022-09-29T21:39:08.347Z,9.63
2022-09-29T21:42:06.537Z,9.00
2022-09-29T21:44:40.104Z,8.93
2022-09-29T21:47:15.330Z,9.20
2022-09-29T21:49:45.155Z,9.53
2022-09-29T21:52:13.590Z,9.23
2022-09-29T21:54:41.934Z,8.93
2022-09-29T21:57:10.231Z,8.50
2022-09-29T21:59:38.720Z,8.10
2022-09-29T22:02:07.837Z,9.60
2022-09-29T22:04:36.587Z,9.57
2022-09-29T22:07:06.361Z,9.07
2022-09-29T22:09:36.957Z,9.00
2022-09-29T22:12:05.435Z,9.00
2022-09-29T22:14:33.715Z,8.87
2022-09-29T22:17:02.171Z,8.87
2022-09-29T22:19:30.938Z,9.40
2022-09-29T22:22:01.594Z,9.97
2022-09-29T22:24:31.887Z,9.60
2022-09-29T22:27:00.348Z,9.83
2022-09-29T22:29:28.973Z,9.50
2022-09-29T22:31:57.278Z,10.17
2022-09-29T22:34:25.721Z,9.27
2022-09-29T22:36:54.057Z,10.83
2022-09-29T22:39:22.704Z,10.83
2022-09-29T22:41:53.700Z,10.57
2022-09-29T22:44:22.018Z,9.77
2022-09-29T22:46:50.437Z,9.37
2022-09-29T22:49:18.913Z,9.97
2022-09-29T22:51:47.337Z,10.43
2022-09-29T22:54:15.766Z,9.87
2022-09-29T22:56:43.974Z,9.27
2022-09-29T22:59:14.517Z,9.23
2022-09-29T23:01:43.123Z,10.10
2022-09-29T23:04:19.296Z,10.67
2022-09-29T23:06:50.177Z,9.70
2022-09-29T23:09:18.972Z,9.60
2022-09-29T23:11:50.500Z,10.47
2022-09-29T23:14:21.690Z,9.87
2022-09-29T23:16:50.057Z,9.17
2022-09-29T23:19:23.094Z,8.77
2022-09-29T23:21:52.102Z,8.67
2022-09-29T23:24:20.970Z,9.00
2022-09-29T23:26:49.644Z,8.83
2022-09-29T23:29:18.282Z,8.73
2022-09-29T23:31:49.742Z,9.50
2022-09-29T23:34:20.537Z,9.73
2022-09-29T23:36:48.980Z,10.00
2022-09-29T23:39:16.422Z,11.10
2022-09-29T23:41:45.624Z,11.37
2022-09-29T23:44:15.646Z,11.00
2022-09-29T23:46:45.801Z,11.30
2022-09-29T23:49:22.816Z,11.17
2022-09-29T23:51:54.603Z,11.10
2022-09-29T23:54:27.002Z,11.20
2022-09-29T23:56:57.260Z,11.77
2022-09-29T23:59:32.238Z,10.70
